createdAt,value
2018-04-25T00:00:59.972Z,15.98
2018-04-25T00:02:09.703Z,15.95
2018-04-25T00:03:19.708Z,15.98
2018-04-25T00:04:29.180Z,15.99
2018-04-25T00:05:38.917Z,15.93
2018-04-25T00:06:48.913Z,15.96
2018-04-25T00:07:58.642Z,15.92
2018-04-25T00:09:08.381Z,15.99
2018-04-25T00:10:18.382Z,16.03
2018-04-25T00:11:28.132Z,15.89
2018-04-25T00:12:38.136Z,16.03
2018-04-25T00:13:48.133Z,15.98
2018-04-25T00:14:58.133Z,16.01
2018-04-25T00:16:07.773Z,16.03
2018-04-25T00:17:17.498Z,16.01
2018-04-25T00:18:26.695Z,16.04
2018-04-25T00:19:36.160Z,16.06
2018-04-25T00:20:46.226Z,16.03
2018-04-25T00:21:55.988Z,16.06
2018-04-25T00:23:05.985Z,16.06
2018-04-25T00:24:15.450Z,16.11
2018-04-25T00:25:25.011Z,16.07
2018-04-25T00:26:34.481Z,16.07
2018-04-25T00:27:44.491Z,16.08
2018-04-25T00:28:53.965Z,16.07
2018-04-25T00:30:03.974Z,16.07
2018-04-25T00:31:13.439Z,16.16
2018-04-25T00:32:23.194Z,16.13
2018-04-25T00:33:32.934Z,16.1
2018-04-25T00:34:42.671Z,16.11
2018-04-25T00:35:52.670Z,16.11
2018-04-25T00:37:02.685Z,16.17
2018-04-25T00:38:12.429Z,16.23
2018-04-25T00:39:21.900Z,16.26
2018-04-25T00:40:31.360Z,16.25
2018-04-25T00:41:41.097Z,16.25
2018-04-25T00:42:50.825Z,16.17
2018-04-25T00:44:00.306Z,16.22
2018-04-25T00:45:10.039Z,16.27
2018-04-25T00:46:19.539Z,16.18
2018-04-25T00:47:29.050Z,16.18
2018-04-25T00:48:38.565Z,16.17
2018-04-25T00:49:48.372Z,16.33
2018-04-25T00:50:58.103Z,16.3
2018-04-25T00:52:07.576Z,16.29
2018-04-25T00:53:17.578Z,16.23
2018-04-25T00:54:27.054Z,16.27
2018-04-25T00:55:36.781Z,16.23
2018-04-25T00:56:46.509Z,16.3
2018-04-25T00:57:56.318Z,16.37
2018-04-25T00:59:06.064Z,16.34
2018-04-25T01:00:15.534Z,16.3
2018-04-25T01:01:25.543Z,16.33
2018-04-25T01:02:35.546Z,16.32
2018-04-25T01:03:45.319Z,16.26
2018-04-25T01:04:55.325Z,16.26
2018-04-25T01:06:05.354Z,16.25
2018-04-25T01:07:14.846Z,16.32
2018-04-25T01:08:24.842Z,16.32
2018-04-25T01:09:34.585Z,16.27
2018-04-25T01:10:44.051Z,16.27
2018-04-25T01:11:54.205Z,16.18
2018-04-25T01:13:04.202Z,16.29
2018-04-25T01:14:13.935Z,16.26
2018-04-25T01:15:23.658Z,16.29
2018-04-25T01:16:33.393Z,16.29
2018-04-25T01:17:43.121Z,16.29
2018-04-25T01:18:53.135Z,16.32
2018-04-25T01:20:02.863Z,16.3
2018-04-25T01:21:12.604Z,16.23
2018-04-25T01:22:22.631Z,16.18
2018-04-25T01:23:32.370Z,16.23
2018-04-25T01:24:42.379Z,16.29
2018-04-25T01:25:51.851Z,16.29
2018-04-25T01:27:01.316Z,16.16
2018-04-25T01:28:10.528Z,16.3
2018-04-25T01:29:20.255Z,16.29
2018-04-25T01:30:29.716Z,16.32
2018-04-25T01:31:39.448Z,16.29
2018-04-25T01:32:48.917Z,16.29
2018-04-25T01:33:58.439Z,16.26
2018-04-25T01:35:08.451Z,16.26
2018-04-25T01:36:17.910Z,16.3
2018-04-25T01:37:27.903Z,16.3
2018-04-25T01:38:37.376Z,16.34
2018-04-25T01:39:47.371Z,16.3
2018-04-25T01:40:57.104Z,16.22
2018-04-25T01:42:06.307Z,16.16
2018-04-25T01:43:15.769Z,16.18
2018-04-25T01:44:25.523Z,16.13
2018-04-25T01:45:35.254Z,16.23
2018-04-25T01:46:44.727Z,16.23
2018-04-25T01:47:54.459Z,16.25
2018-04-25T01:49:03.648Z,16.26
2018-04-25T01:50:12.839Z,16.18
2018-04-25T01:51:22.559Z,16.23
2018-04-25T01:52:32.016Z,16.17
2018-04-25T01:53:41.739Z,16.14
2018-04-25T01:54:51.738Z,16.27
2018-04-25T01:56:01.461Z,16.29
2018-04-25T01:57:11.453Z,16.22
2018-04-25T01:58:21.179Z,16.25
2018-04-25T01:59:30.902Z,16.25
2018-04-25T02:00:40.497Z,16.14
2018-04-25T02:01:50.241Z,16.23
2018-04-25T02:02:59.702Z,16.17
2018-04-25T02:04:09.161Z,16.18
2018-04-25T02:05:18.886Z,16.26
2018-04-25T02:06:28.351Z,16.18
2018-04-25T02:07:38.080Z,16.23
2018-04-25T02:08:48.079Z,16.17
2018-04-25T02:09:57.548Z,16.16
2018-04-25T02:11:07.281Z,16.23
2018-04-25T02:12:17.280Z,16.17
2018-04-25T02:13:27.005Z,16.16
2018-04-25T02:14:37.003Z,16.14
2018-04-25T02:15:46.463Z,16.25
2018-04-25T02:16:56.201Z,16.17
2018-04-25T02:18:05.995Z,16.16
2018-04-25T02:19:15.458Z,16.29
2018-04-25T02:20:25.189Z,16.25
2018-04-25T02:21:35.199Z,16.18
2018-04-25T02:22:44.922Z,16.13
2018-04-25T02:23:54.955Z,16.25
2018-04-25T02:25:04.700Z,16.18
2018-04-25T02:26:14.448Z,16.18
2018-04-25T02:27:24.499Z,16.18
2018-04-25T02:28:34.261Z,16.16
2018-04-25T02:29:44.248Z,16.18
2018-04-25T02:30:53.986Z,16.18
2018-04-25T02:32:04.046Z,16.16
2018-04-25T02:33:14.063Z,16.17
2018-04-25T02:34:23.534Z,16.29
2018-04-25T02:35:33.006Z,16.14
2018-04-25T02:36:42.763Z,16.18
2018-04-25T02:37:52.502Z,16.22
2018-04-25T02:39:02.505Z,16.22
2018-04-25T02:40:12.235Z,16.17
2018-04-25T02:41:22.236Z,16.17
2018-04-25T02:42:32.225Z,16.23
2018-04-25T02:43:41.974Z,16.22
2018-04-25T02:44:51.705Z,16.25
2018-04-25T02:46:00.638Z,16.17
2018-04-25T02:47:10.376Z,16.13
2018-04-25T02:48:19.846Z,16.07
2018-04-25T02:49:29.567Z,16.18
2018-04-25T02:50:39.301Z,16.06
2018-04-25T02:51:49.031Z,16.06
2018-04-25T02:52:59.035Z,16.06
2018-04-25T02:54:08.775Z,16.07
2018-04-25T02:55:18.774Z,16.08
2018-04-25T02:56:28.517Z,16.14
2018-04-25T02:57:38.251Z,16.07
2018-04-25T02:58:48.111Z,16.13
2018-04-25T02:59:58.240Z,16.16
2018-04-25T03:01:07.969Z,16.1
2018-04-25T03:02:17.713Z,16.08
2018-04-25T03:03:27.160Z,16.08
2018-04-25T03:04:36.625Z,16.13
2018-04-25T03:05:46.371Z,16.16
2018-04-25T03:06:56.114Z,16.06
2018-04-25T03:08:06.146Z,16.16
2018-04-25T03:09:15.612Z,16.04
2018-04-25T03:10:25.355Z,16.13
2018-04-25T03:11:35.092Z,16.14
2018-04-25T03:12:44.820Z,16.17
2018-04-25T03:13:54.829Z,16.03
2018-04-25T03:15:04.039Z,16.06
2018-04-25T03:16:13.782Z,16.01
2018-04-25T03:17:23.797Z,16.08
2018-04-25T03:18:33.519Z,16.03
2018-04-25T03:19:42.991Z,15.99
2018-04-25T03:20:52.791Z,16.04
2018-04-25T03:22:02.249Z,16.01
2018-04-25T03:23:11.990Z,16.01
2018-04-25T03:24:21.984Z,15.99
2018-04-25T03:25:31.718Z,16.08
2018-04-25T03:26:41.452Z,15.96
2018-04-25T03:27:50.911Z,16.07
2018-04-25T03:29:00.383Z,16.06
2018-04-25T03:30:09.847Z,15.99
2018-04-25T03:31:19.582Z,15.99
2018-04-25T03:32:29.046Z,15.96
2018-04-25T03:33:38.592Z,15.91
2018-04-25T03:34:47.861Z,16.03
2018-04-25T03:35:57.853Z,16.03
2018-04-25T03:37:07.049Z,16.04
2018-04-25T03:38:16.511Z,16.01
2018-04-25T03:39:26.238Z,15.96
2018-04-25T03:40:35.169Z,16.01
2018-04-25T03:41:45.167Z,15.99
2018-04-25T03:42:55.160Z,15.93
2018-04-25T03:44:04.884Z,15.95
2018-04-25T03:45:14.897Z,15.99
2018-04-25T03:46:24.640Z,15.99
2018-04-25T03:47:34.366Z,15.89
2018-04-25T03:48:44.085Z,15.89
2018-04-25T03:49:53.863Z,15.95
2018-04-25T03:51:03.593Z,15.92
2018-04-25T03:52:13.051Z,15.96
2018-04-25T03:53:23.048Z,15.88
2018-04-25T03:54:33.037Z,15.98
2018-04-25T03:55:42.244Z,15.89
2018-04-25T03:56:51.445Z,15.85
2018-04-25T03:58:01.428Z,15.86
2018-04-25T03:59:11.189Z,15.88
2018-04-25T04:00:20.998Z,15.85
2018-04-25T04:01:30.994Z,15.85
2018-04-25T04:02:40.732Z,15.78
2018-04-25T04:03:50.897Z,15.84
2018-04-25T04:05:00.888Z,15.76
2018-04-25T04:06:10.349Z,15.74
2018-04-25T04:07:19.815Z,15.77
2018-04-25T04:08:29.271Z,15.76
2018-04-25T04:09:39.041Z,15.74
2018-04-25T04:10:48.770Z,15.68
2018-04-25T04:11:58.495Z,15.62
2018-04-25T04:13:08.598Z,15.56
2018-04-25T04:14:17.798Z,15.62
2018-04-25T04:15:27.522Z,15.53
2018-04-25T04:16:37.251Z,15.55
2018-04-25T04:17:46.753Z,15.56
2018-04-25T04:18:56.488Z,15.58
2018-04-25T04:20:06.481Z,15.55
2018-04-25T04:21:16.231Z,15.52
2018-04-25T04:22:25.690Z,15.52
2018-04-25T04:23:35.425Z,15.49
2018-04-25T04:24:45.509Z,15.55
2018-04-25T04:25:55.277Z,15.53
2018-04-25T04:27:04.479Z,15.6
2018-04-25T04:28:13.959Z,15.56
2018-04-25T04:29:23.689Z,15.64
2018-04-25T04:30:32.902Z,15.66
2018-04-25T04:31:42.630Z,15.73
2018-04-25T04:32:51.835Z,15.73
2018-04-25T04:34:01.297Z,15.76
2018-04-25T04:35:11.060Z,15.71
2018-04-25T04:36:20.785Z,15.73
2018-04-25T04:37:30.555Z,15.62
2018-04-25T04:38:40.282Z,15.6
2018-04-25T04:39:49.758Z,15.78
2018-04-25T04:40:59.218Z,15.7
2018-04-25T04:42:08.952Z,15.62
2018-04-25T04:43:18.934Z,15.52
2018-04-25T04:44:28.713Z,15.58
2018-04-25T04:45:38.198Z,15.58
2018-04-25T04:46:47.654Z,15.56
2018-04-25T04:47:57.381Z,15.55
2018-04-25T04:49:07.403Z,15.55
2018-04-25T04:50:16.876Z,15.41
2018-04-25T04:51:26.872Z,15.35
2018-04-25T04:52:36.868Z,15.38
2018-04-25T04:53:45.804Z,15.43
2018-04-25T04:54:55.811Z,15.43
2018-04-25T04:56:05.298Z,15.4
2018-04-25T04:57:15.030Z,15.43
2018-04-25T04:58:24.513Z,15.46
2018-04-25T04:59:33.970Z,15.46
2018-04-25T05:00:43.711Z,15.44
2018-04-25T05:01:53.175Z,15.49
2018-04-25T05:03:02.927Z,15.55
2018-04-25T05:04:12.944Z,15.53
2018-04-25T05:05:22.692Z,15.6
2018-04-25T05:06:32.700Z,15.53
2018-04-25T05:07:42.423Z,15.62
2018-04-25T05:08:52.519Z,15.58
2018-04-25T05:10:01.715Z,15.6
2018-04-25T05:11:11.180Z,15.6
2018-04-25T05:12:20.372Z,15.64
2018-04-25T05:13:29.846Z,15.68
2018-04-25T05:14:39.583Z,15.67
2018-04-25T05:15:49.308Z,15.76
2018-04-25T05:16:59.038Z,15.76
2018-04-25T05:18:08.237Z,15.52
2018-04-25T05:19:17.966Z,15.56
2018-04-25T05:20:27.713Z,15.48
2018-04-25T05:21:37.199Z,15.52
2018-04-25T05:22:46.930Z,15.51
2018-04-25T05:23:56.928Z,15.38
2018-04-25T05:25:06.669Z,15.33
2018-04-25T05:26:16.140Z,15.23
2018-04-25T05:27:25.340Z,15.19
2018-04-25T05:28:34.547Z,15.03
2018-04-25T05:29:44.014Z,14.9
2018-04-25T05:30:53.754Z,14.66
2018-04-25T05:32:03.410Z,14.38
2018-04-25T05:33:12.837Z,14.23
2018-04-25T05:34:22.571Z,14.17
2018-04-25T05:35:31.776Z,14.06
2018-04-25T05:36:41.775Z,13.91
2018-04-25T05:37:51.500Z,13.86
2018-04-25T05:39:00.968Z,13.73
2018-04-25T05:40:10.712Z,13.8
2018-04-25T05:41:20.714Z,13.79
2018-04-25T05:42:30.708Z,13.8
2018-04-25T05:43:40.705Z,13.65
2018-04-25T05:44:50.434Z,13.62
2018-04-25T05:45:59.719Z,13.61
2018-04-25T05:47:09.945Z,13.54
2018-04-25T05:48:20.138Z,13.57
2018-04-25T05:49:29.869Z,13.65
2018-04-25T05:50:39.865Z,13.63
2018-04-25T05:51:49.679Z,13.62
2018-04-25T05:52:59.749Z,13.63
2018-04-25T05:54:09.480Z,13.5
2018-04-25T05:55:19.477Z,13.55
2018-04-25T05:56:29.211Z,13.54
2018-04-25T05:57:38.669Z,13.5
2018-04-25T05:58:48.132Z,13.51
2018-04-25T05:59:57.900Z,13.62
2018-04-25T06:01:07.632Z,13.69
2018-04-25T06:02:17.782Z,13.62
2018-04-25T06:03:27.259Z,13.68
2018-04-25T06:04:36.984Z,13.53
2018-04-25T06:05:46.722Z,13.53
2018-04-25T06:06:56.214Z,13.47
2018-04-25T06:08:05.953Z,13.5
2018-04-25T06:09:15.675Z,13.55
2018-04-25T06:10:25.413Z,13.48
2018-04-25T06:11:35.412Z,13.51
2018-04-25T06:12:45.401Z,13.44
2018-04-25T06:13:55.453Z,13.5
2018-04-25T06:15:05.192Z,13.47
2018-04-25T06:16:15.320Z,13.47
2018-04-25T06:17:25.315Z,13.44
2018-04-25T06:18:35.306Z,13.43
2018-04-25T06:19:44.944Z,13.44
2018-04-25T06:20:54.688Z,13.29
2018-04-25T06:22:04.152Z,13.16
2018-04-25T06:23:13.614Z,13.22
2018-04-25T06:24:23.604Z,12.99
2018-04-25T06:25:33.068Z,13.01
2018-04-25T06:26:42.533Z,13.07
2018-04-25T06:27:51.998Z,13.06
2018-04-25T06:29:01.990Z,13.09
2018-04-25T06:30:11.728Z,13.03
2018-04-25T06:31:21.722Z,13.01
2018-04-25T06:32:30.913Z,12.91
2018-04-25T06:33:40.374Z,12.89
2018-04-25T06:34:50.101Z,12.89
2018-04-25T06:36:00.096Z,12.88
2018-04-25T06:37:09.817Z,12.89
2018-04-25T06:38:19.540Z,12.95
2018-04-25T06:39:29.681Z,12.91
2018-04-25T06:40:39.443Z,12.81
2018-04-25T06:41:49.176Z,12.87
2018-04-25T06:42:58.896Z,12.95
2018-04-25T06:44:08.357Z,13.1
2018-04-25T06:45:18.348Z,13.28
2018-04-25T06:46:28.069Z,13.13
2018-04-25T06:47:37.525Z,13.21
2018-04-25T06:48:47.262Z,13.32
2018-04-25T06:49:56.720Z,13.32
2018-04-25T06:51:06.181Z,13.48
2018-04-25T06:52:15.647Z,13.41
2018-04-25T06:53:25.375Z,13.5
2018-04-25T06:54:34.828Z,13.53
2018-04-25T06:55:44.548Z,13.53
2018-04-25T06:56:54.069Z,13.68
2018-04-25T06:58:03.789Z,13.8
2018-04-25T06:59:13.252Z,14.04
2018-04-25T07:00:23.256Z,14.26
2018-04-25T07:01:32.977Z,14.36
2018-04-25T07:02:42.971Z,14.24
2018-04-25T07:03:52.441Z,14.19
2018-04-25T07:05:02.356Z,14.27
2018-04-25T07:06:11.821Z,14.23
2018-04-25T07:07:21.388Z,14.2
2018-04-25T07:08:30.964Z,14.2
2018-04-25T07:09:40.890Z,14.26
2018-04-25T07:10:50.984Z,14.23
2018-04-25T07:12:00.714Z,14.21
2018-04-25T07:13:09.921Z,14.21
2018-04-25T07:14:19.477Z,14.19
2018-04-25T07:15:29.209Z,14.09
2018-04-25T07:16:39.216Z,14.19
2018-04-25T07:17:48.947Z,14.19
2018-04-25T07:18:58.672Z,14.21
2018-04-25T07:20:08.440Z,14.29
2018-04-25T07:21:18.179Z,14.12
2018-04-25T07:22:28.188Z,14.06
2018-04-25T07:23:38.212Z,14.21
2018-04-25T07:24:47.952Z,14.44
2018-04-25T07:25:57.415Z,14.46
2018-04-25T07:27:06.973Z,14.34
2018-04-25T07:28:16.438Z,14.31
2018-04-25T07:29:26.043Z,14.2
2018-04-25T07:30:35.320Z,14.26
2018-04-25T07:31:45.066Z,14.38
2018-04-25T07:32:54.534Z,14.57
2018-04-25T07:34:04.292Z,14.31
2018-04-25T07:35:13.499Z,14.41
2018-04-25T07:36:22.712Z,14.83
2018-04-25T07:37:32.704Z,15.12
2018-04-25T07:38:42.712Z,15.03
2018-04-25T07:39:52.170Z,15.16
2018-04-25T07:41:01.113Z,15.01
2018-04-25T07:42:10.844Z,15.01
2018-04-25T07:43:20.571Z,15.01
2018-04-25T07:44:30.359Z,14.93
2018-04-25T07:45:40.091Z,15.11
2018-04-25T07:46:49.553Z,15.3
2018-04-25T07:47:59.551Z,15.43
2018-04-25T07:49:09.595Z,15.56
2018-04-25T07:50:19.364Z,15.41
2018-04-25T07:51:29.378Z,15.43
2018-04-25T07:52:39.381Z,15.52
2018-04-25T07:53:48.842Z,15.28
2018-04-25T07:54:58.336Z,15.11
2018-04-25T07:56:08.116Z,14.85
2018-04-25T07:57:17.581Z,15.04
2018-04-25T07:58:27.047Z,15.18
2018-04-25T07:59:36.773Z,15.31
2018-04-25T08:00:45.984Z,15.38
2018-04-25T08:01:55.219Z,15.7
2018-04-25T08:03:05.028Z,15.58
2018-04-25T08:04:14.533Z,15.51
2018-04-25T08:05:23.744Z,15.7
2018-04-25T08:06:33.223Z,15.92
2018-04-25T08:07:43.331Z,16.16
2018-04-25T08:08:53.440Z,16.3
2018-04-25T08:10:03.230Z,15.99
2018-04-25T08:11:12.726Z,15.67
2018-04-25T08:12:22.433Z,15.55
2018-04-25T08:13:32.394Z,15.58
2018-04-25T08:14:41.853Z,15.49
2018-04-25T08:15:52.039Z,15.4
2018-04-25T08:17:01.542Z,15.07
2018-04-25T08:18:10.766Z,14.9
2018-04-25T08:19:20.519Z,14.71
2018-04-25T08:20:30.294Z,14.31
2018-04-25T08:21:40.038Z,13.99
2018-04-25T08:22:49.805Z,13.72
2018-04-25T08:23:59.851Z,13.51
2018-04-25T08:25:08.529Z,13.32
2018-04-25T08:26:18.003Z,13.17
2018-04-25T08:27:27.754Z,13.32
2018-04-25T08:28:37.515Z,13.73
2018-04-25T08:29:46.996Z,13.93
2018-04-25T08:30:56.498Z,13.91
2018-04-25T08:32:05.984Z,14.13
2018-04-25T08:33:15.449Z,14.23
2018-04-25T08:34:25.146Z,14.56
2018-04-25T08:35:37.082Z,14.59
2018-04-25T08:36:47.105Z,14.39
2018-04-25T08:37:56.329Z,14.3
2018-04-25T08:39:06.212Z,14.08
2018-04-25T08:40:16.030Z,13.73
2018-04-25T08:41:25.226Z,13.79
2018-04-25T08:42:34.709Z,13.87
2018-04-25T08:43:44.640Z,14.02
2018-04-25T08:44:54.993Z,13.83
2018-04-25T08:46:04.763Z,13.73
2018-04-25T08:47:14.495Z,13.5
2018-04-25T08:48:23.701Z,13.47
2018-04-25T08:49:33.452Z,13.43
2018-04-25T08:50:42.931Z,13.28
2018-04-25T08:51:52.681Z,13.46
2018-04-25T08:53:02.621Z,13.62
2018-04-25T08:54:12.344Z,14.05
